sensor_id;sensor_type;location;lat;lon;timestamp;P1;durP1;ratioP1;P2;durP2;ratioP2
54235;SDS011;40151;43.606;1.472;2023-03-23T00:01:47;3.00;;;1.52;;
54235;SDS011;40151;43.606;1.472;2023-03-23T00:04:15;3.63;;;1.67;;
54235;SDS011;40151;43.606;1.472;2023-03-23T00:06:41;2.55;;;1.50;;
54235;SDS011;40151;43.606;1.472;2023-03-23T00:09:07;3.42;;;1.40;;
54235;SDS011;40151;43.606;1.472;2023-03-23T00:11:33;3.30;;;1.65;;
54235;SDS011;40151;43.606;1.472;2023-03-23T00:13:59;2.70;;;1.65;;
54235;SDS011;40151;43.606;1.472;2023-03-23T00:16:26;3.17;;;1.50;;
54235;SDS011;40151;43.606;1.472;2023-03-23T00:21:30;2.53;;;1.40;;
54235;SDS011;40151;43.606;1.472;2023-03-23T00:24:07;2.35;;;1.40;;
54235;SDS011;40151;43.606;1.472;2023-03-23T00:26:36;2.65;;;1.40;;
54235;SDS011;40151;43.606;1.472;2023-03-23T00:29:05;3.17;;;1.63;;
54235;SDS011;40151;43.606;1.472;2023-03-23T00:31:33;2.97;;;1.50;;
54235;SDS011;40151;43.606;1.472;2023-03-23T00:34:00;2.75;;;1.67;;
54235;SDS011;40151;43.606;1.472;2023-03-23T00:36:29;5.63;;;2.13;;
54235;SDS011;40151;43.606;1.472;2023-03-23T00:39:00;3.10;;;1.70;;
54235;SDS011;40151;43.606;1.472;2023-03-23T00:41:26;4.28;;;1.85;;
54235;SDS011;40151;43.606;1.472;2023-03-23T00:43:56;2.60;;;1.60;;
54235;SDS011;40151;43.606;1.472;2023-03-23T00:46:23;3.92;;;2.03;;
54235;SDS011;40151;43.606;1.472;2023-03-23T00:48:49;2.60;;;1.50;;
54235;SDS011;40151;43.606;1.472;2023-03-23T00:51:18;3.65;;;1.90;;
54235;SDS011;40151;43.606;1.472;2023-03-23T00:53:45;3.97;;;2.00;;
54235;SDS011;40151;43.606;1.472;2023-03-23T00:56:11;4.45;;;2.10;;
54235;SDS011;40151;43.606;1.472;2023-03-23T00:58:36;4.10;;;2.00;;
54235;SDS011;40151;43.606;1.472;2023-03-23T01:01:02;4.15;;;2.15;;
54235;SDS011;40151;43.606;1.472;2023-03-23T01:03:29;4.15;;;2.50;;
54235;SDS011;40151;43.606;1.472;2023-03-23T01:05:54;5.00;;;2.22;;
54235;SDS011;40151;43.606;1.472;2023-03-23T01:08:21;5.28;;;2.20;;
54235;SDS011;40151;43.606;1.472;2023-03-23T01:10:48;3.97;;;2.40;;
54235;SDS011;40151;43.606;1.472;2023-03-23T01:13:14;4.18;;;2.17;;
54235;SDS011;40151;43.606;1.472;2023-03-23T01:15:40;4.43;;;2.35;;
54235;SDS011;40151;43.606;1.472;2023-03-23T01:18:06;4.22;;;2.40;;
54235;SDS011;40151;43.606;1.472;2023-03-23T01:20:32;4.28;;;2.15;;
54235;SDS011;40151;43.606;1.472;2023-03-23T01:23:00;5.22;;;2.38;;
54235;SDS011;40151;43.606;1.472;2023-03-23T01:25:29;4.10;;;2.42;;
54235;SDS011;40151;43.606;1.472;2023-03-23T01:27:57;4.95;;;2.53;;
54235;SDS011;40151;43.606;1.472;2023-03-23T01:30:23;4.18;;;2.50;;
54235;SDS011;40151;43.606;1.472;2023-03-23T01:32:49;4.85;;;2.60;;
54235;SDS011;40151;43.606;1.472;2023-03-23T01:35:15;4.28;;;2.25;;
54235;SDS011;40151;43.606;1.472;2023-03-23T01:37:41;5.65;;;2.78;;
54235;SDS011;40151;43.606;1.472;2023-03-23T01:40:07;4.72;;;2.50;;
54235;SDS011;40151;43.606;1.472;2023-03-23T01:42:34;4.80;;;2.55;;
54235;SDS011;40151;43.606;1.472;2023-03-23T01:47:48;4.75;;;2.63;;
54235;SDS011;40151;43.606;1.472;2023-03-23T01:50:18;5.55;;;3.20;;
54235;SDS011;40151;43.606;1.472;2023-03-23T01:52:45;4.68;;;2.75;;
54235;SDS011;40151;43.606;1.472;2023-03-23T01:55:11;4.97;;;3.00;;
54235;SDS011;40151;43.606;1.472;2023-03-23T01:57:37;4.80;;;2.65;;
54235;SDS011;40151;43.606;1.472;2023-03-23T02:00:05;5.57;;;3.03;;
54235;SDS011;40151;43.606;1.472;2023-03-23T02:02:36;5.30;;;3.30;;
54235;SDS011;40151;43.606;1.472;2023-03-23T02:05:04;6.05;;;3.45;;
54235;SDS011;40151;43.606;1.472;2023-03-23T02:07:35;5.53;;;3.22;;
54235;SDS011;40151;43.606;1.472;2023-03-23T02:10:01;5.32;;;3.30;;
54235;SDS011;40151;43.606;1.472;2023-03-23T02:12:26;6.00;;;3.13;;
54235;SDS011;40151;43.606;1.472;2023-03-23T02:14:52;5.22;;;3.13;;
54235;SDS011;40151;43.606;1.472;2023-03-23T02:37:02;6.38;;;3.85;;
54235;SDS011;40151;43.606;1.472;2023-03-23T02:39:43;6.10;;;3.50;;
54235;SDS011;40151;43.606;1.472;2023-03-23T02:42:13;5.60;;;3.38;;
54235;SDS011;40151;43.606;1.472;2023-03-23T02:44:42;6.53;;;3.60;;
54235;SDS011;40151;43.606;1.472;2023-03-23T02:47:11;4.25;;;2.67;;
54235;SDS011;40151;43.606;1.472;2023-03-23T02:49:40;4.72;;;3.10;;
54235;SDS011;40151;43.606;1.472;2023-03-23T02:52:11;5.55;;;3.20;;
54235;SDS011;40151;43.606;1.472;2023-03-23T02:54:41;5.13;;;3.47;;
54235;SDS011;40151;43.606;1.472;2023-03-23T02:57:09;6.18;;;3.15;;
54235;SDS011;40151;43.606;1.472;2023-03-23T02:59:35;5.18;;;3.53;;
54235;SDS011;40151;43.606;1.472;2023-03-23T03:02:03;6.03;;;3.30;;
54235;SDS011;40151;43.606;1.472;2023-03-23T03:04:32;6.00;;;3.33;;
54235;SDS011;40151;43.606;1.472;2023-03-23T03:07:18;5.65;;;3.30;;
54235;SDS011;40151;43.606;1.472;2023-03-23T03:10:11;5.57;;;3.22;;
54235;SDS011;40151;43.606;1.472;2023-03-23T03:12:55;5.28;;;2.97;;
54235;SDS011;40151;43.606;1.472;2023-03-23T03:15:23;5.40;;;3.35;;
54235;SDS011;40151;43.606;1.472;2023-03-23T03:18:05;5.47;;;3.60;;
54235;SDS011;40151;43.606;1.472;2023-03-23T03:20:32;5.45;;;3.15;;
54235;SDS011;40151;43.606;1.472;2023-03-23T03:23:03;5.38;;;3.10;;
54235;SDS011;40151;43.606;1.472;2023-03-23T03:25:29;4.97;;;3.70;;
54235;SDS011;40151;43.606;1.472;2023-03-23T03:27:56;5.25;;;3.33;;
54235;SDS011;40151;43.606;1.472;2023-03-23T03:30:23;5.88;;;3.20;;
54235;SDS011;40151;43.606;1.472;2023-03-23T03:32:53;5.75;;;3.50;;
54235;SDS011;40151;43.606;1.472;2023-03-23T03:35:22;4.65;;;3.50;;
54235;SDS011;40151;43.606;1.472;2023-03-23T03:37:48;5.55;;;3.45;;
54235;SDS011;40151;43.606;1.472;2023-03-23T03:40:17;6.07;;;3.78;;
54235;SDS011;40151;43.606;1.472;2023-03-23T03:42:44;5.72;;;3.50;;
54235;SDS011;40151;43.606;1.472;2023-03-23T03:45:12;6.03;;;3.58;;
54235;SDS011;40151;43.606;1.472;2023-03-23T03:47:39;5.47;;;3.50;;
54235;SDS011;40151;43.606;1.472;2023-03-23T03:50:05;5.57;;;3.50;;
54235;SDS011;40151;43.606;1.472;2023-03-23T03:52:31;4.82;;;2.75;;
54235;SDS011;40151;43.606;1.472;2023-03-23T03:54:57;6.53;;;3.33;;
54235;SDS011;40151;43.606;1.472;2023-03-23T03:57:23;6.43;;;3.60;;
54235;SDS011;40151;43.606;1.472;2023-03-23T03:59:49;6.00;;;3.60;;
54235;SDS011;40151;43.606;1.472;2023-03-23T04:02:15;6.40;;;3.90;;
54235;SDS011;40151;43.606;1.472;2023-03-23T04:04:45;5.22;;;3.47;;
54235;SDS011;40151;43.606;1.472;2023-03-23T04:07:11;6.82;;;3.60;;
54235;SDS011;40151;43.606;1.472;2023-03-23T04:09:38;6.00;;;3.38;;
54235;SDS011;40151;43.606;1.472;2023-03-23T04:12:04;7.38;;;3.83;;
54235;SDS011;40151;43.606;1.472;2023-03-23T04:14:30;5.93;;;3.97;;
54235;SDS011;40151;43.606;1.472;2023-03-23T04:16:56;5.55;;;2.97;;
54235;SDS011;40151;43.606;1.472;2023-03-23T04:19:22;6.28;;;3.70;;
54235;SDS011;40151;43.606;1.472;2023-03-23T04:21:48;5.43;;;3.10;;
54235;SDS011;40151;43.606;1.472;2023-03-23T04:24:14;4.88;;;3.58;;
54235;SDS011;40151;43.606;1.472;2023-03-23T04:26:40;5.00;;;3.38;;
54235;SDS011;40151;43.606;1.472;2023-03-23T04:29:07;4.82;;;3.42;;
54235;SDS011;40151;43.606;1.472;2023-03-23T04:31:33;5.47;;;3.45;;
54235;SDS011;40151;43.606;1.472;2023-03-23T04:33:59;6.53;;;3.58;;
54235;SDS011;40151;43.606;1.472;2023-03-23T04:36:26;5.80;;;3.28;;
54235;SDS011;40151;43.606;1.472;2023-03-23T04:38:54;5.50;;;3.78;;
54235;SDS011;40151;43.606;1.472;2023-03-23T04:41:20;6.32;;;3.45;;
54235;SDS011;40151;43.606;1.472;2023-03-23T04:43:46;5.90;;;3.42;;
54235;SDS011;40151;43.606;1.472;2023-03-23T04:46:17;7.13;;;3.92;;
54235;SDS011;40151;43.606;1.472;2023-03-23T04:48:44;5.07;;;3.17;;
54235;SDS011;40151;43.606;1.472;2023-03-23T04:51:10;5.97;;;3.05;;
54235;SDS011;40151;43.606;1.472;2023-03-23T04:53:37;5.25;;;3.38;;
54235;SDS011;40151;43.606;1.472;2023-03-23T04:56:02;5.40;;;3.05;;
54235;SDS011;40151;43.606;1.472;2023-03-23T04:58:28;5.38;;;3.42;;
54235;SDS011;40151;43.606;1.472;2023-03-23T05:00:54;5.30;;;3.25;;
54235;SDS011;40151;43.606;1.472;2023-03-23T05:03:20;4.90;;;3.28;;
54235;SDS011;40151;43.606;1.472;2023-03-23T05:05:46;5.40;;;3.00;;
54235;SDS011;40151;43.606;1.472;2023-03-23T05:08:16;4.40;;;3.28;;
54235;SDS011;40151;43.606;1.472;2023-03-23T05:10:50;5.75;;;3.40;;
54235;SDS011;40151;43.606;1.472;2023-03-23T05:13:20;5.78;;;3.13;;
54235;SDS011;40151;43.606;1.472;2023-03-23T05:15:45;5.05;;;3.17;;
54235;SDS011;40151;43.606;1.472;2023-03-23T05:18:12;4.70;;;3.47;;
54235;SDS011;40151;43.606;1.472;2023-03-23T05:20:37;4.60;;;3.00;;
54235;SDS011;40151;43.606;1.472;2023-03-23T05:23:04;5.55;;;3.45;;
54235;SDS011;40151;43.606;1.472;2023-03-23T05:25:30;5.50;;;3.20;;
54235;SDS011;40151;43.606;1.472;2023-03-23T05:27:57;5.10;;;3.50;;
54235;SDS011;40151;43.606;1.472;2023-03-23T05:30:24;4.40;;;3.25;;
54235;SDS011;40151;43.606;1.472;2023-03-23T05:32:49;4.68;;;3.25;;
54235;SDS011;40151;43.606;1.472;2023-03-23T05:35:16;6.53;;;3.67;;
54235;SDS011;40151;43.606;1.472;2023-03-23T05:37:43;5.82;;;3.75;;
54235;SDS011;40151;43.606;1.472;2023-03-23T05:40:09;5.30;;;3.58;;
54235;SDS011;40151;43.606;1.472;2023-03-23T05:42:37;5.35;;;3.63;;
54235;SDS011;40151;43.606;1.472;2023-03-23T05:45:05;6.70;;;3.75;;
54235;SDS011;40151;43.606;1.472;2023-03-23T05:47:31;5.03;;;3.63;;
54235;SDS011;40151;43.606;1.472;2023-03-23T05:49:57;7.13;;;3.90;;
54235;SDS011;40151;43.606;1.472;2023-03-23T05:52:24;6.07;;;3.53;;
54235;SDS011;40151;43.606;1.472;2023-03-23T05:54:50;5.50;;;3.72;;
54235;SDS011;40151;43.606;1.472;2023-03-23T05:57:15;6.20;;;3.40;;
54235;SDS011;40151;43.606;1.472;2023-03-23T05:59:41;6.03;;;3.65;;
54235;SDS011;40151;43.606;1.472;2023-03-23T06:02:08;5.65;;;3.42;;
54235;SDS011;40151;43.606;1.472;2023-03-23T06:04:33;6.25;;;3.80;;
54235;SDS011;40151;43.606;1.472;2023-03-23T06:07:02;6.28;;;3.83;;
54235;SDS011;40151;43.606;1.472;2023-03-23T06:09:28;5.68;;;3.80;;
54235;SDS011;40151;43.606;1.472;2023-03-23T06:11:54;5.80;;;3.85;;
54235;SDS011;40151;43.606;1.472;2023-03-23T06:14:19;5.53;;;3.60;;
54235;SDS011;40151;43.606;1.472;2023-03-23T06:16:46;7.43;;;3.95;;
54235;SDS011;40151;43.606;1.472;2023-03-23T06:19:12;5.93;;;3.58;;
54235;SDS011;40151;43.606;1.472;2023-03-23T06:21:37;5.40;;;3.78;;
54235;SDS011;40151;43.606;1.472;2023-03-23T06:24:03;5.07;;;3.50;;
54235;SDS011;40151;43.606;1.472;2023-03-23T06:26:37;6.20;;;3.85;;
54235;SDS011;40151;43.606;1.472;2023-03-23T06:29:04;5.38;;;3.35;;
54235;SDS011;40151;43.606;1.472;2023-03-23T06:31:41;5.53;;;3.80;;
54235;SDS011;40151;43.606;1.472;2023-03-23T06:34:16;7.15;;;4.28;;
54235;SDS011;40151;43.606;1.472;2023-03-23T06:36:41;5.25;;;3.33;;
54235;SDS011;40151;43.606;1.472;2023-03-23T06:39:09;5.03;;;3.75;;
54235;SDS011;40151;43.606;1.472;2023-03-23T06:41:35;5.38;;;3.60;;
54235;SDS011;40151;43.606;1.472;2023-03-23T06:44:00;5.45;;;3.50;;
54235;SDS011;40151;43.606;1.472;2023-03-23T06:46:26;5.20;;;3.67;;
54235;SDS011;40151;43.606;1.472;2023-03-23T06:48:52;4.80;;;3.45;;
54235;SDS011;40151;43.606;1.472;2023-03-23T06:51:18;4.82;;;3.15;;
54235;SDS011;40151;43.606;1.472;2023-03-23T06:53:44;5.10;;;3.70;;
54235;SDS011;40151;43.606;1.472;2023-03-23T06:56:09;6.80;;;4.05;;
54235;SDS011;40151;43.606;1.472;2023-03-23T06:58:36;5.22;;;3.50;;
54235;SDS011;40151;43.606;1.472;2023-03-23T07:01:03;5.90;;;3.90;;
54235;SDS011;40151;43.606;1.472;2023-03-23T07:03:28;5.78;;;3.88;;
54235;SDS011;40151;43.606;1.472;2023-03-23T07:05:56;5.53;;;3.55;;
54235;SDS011;40151;43.606;1.472;2023-03-23T07:08:22;5.75;;;4.00;;
54235;SDS011;40151;43.606;1.472;2023-03-23T07:10:50;5.07;;;3.78;;
54235;SDS011;40151;43.606;1.472;2023-03-23T07:13:17;4.97;;;3.40;;
54235;SDS011;40151;43.606;1.472;2023-03-23T07:15:43;5.28;;;3.72;;
54235;SDS011;40151;43.606;1.472;2023-03-23T07:18:09;5.45;;;3.88;;
54235;SDS011;40151;43.606;1.472;2023-03-23T07:20:34;4.90;;;3.35;;
54235;SDS011;40151;43.606;1.472;2023-03-23T07:23:00;5.35;;;3.88;;
54235;SDS011;40151;43.606;1.472;2023-03-23T07:25:27;5.63;;;3.67;;
54235;SDS011;40151;43.606;1.472;2023-03-23T07:27:52;6.22;;;3.88;;
54235;SDS011;40151;43.606;1.472;2023-03-23T07:30:18;5.75;;;3.70;;
54235;SDS011;40151;43.606;1.472;2023-03-23T07:32:43;4.95;;;3.80;;
54235;SDS011;40151;43.606;1.472;2023-03-23T07:35:09;5.70;;;3.75;;
54235;SDS011;40151;43.606;1.472;2023-03-23T07:37:34;5.38;;;3.78;;
54235;SDS011;40151;43.606;1.472;2023-03-23T07:40:01;5.80;;;3.78;;
54235;SDS011;40151;43.606;1.472;2023-03-23T07:42:39;5.70;;;3.78;;
54235;SDS011;40151;43.606;1.472;2023-03-23T07:45:05;7.03;;;4.43;;
54235;SDS011;40151;43.606;1.472;2023-03-23T07:47:31;6.18;;;4.10;;
54235;SDS011;40151;43.606;1.472;2023-03-23T07:49:57;6.03;;;4.10;;
54235;SDS011;40151;43.606;1.472;2023-03-23T07:52:22;5.13;;;4.00;;
54235;SDS011;40151;43.606;1.472;2023-03-23T07:54:48;5.20;;;4.00;;
54235;SDS011;40151;43.606;1.472;2023-03-23T07:57:14;5.63;;;4.00;;
54235;SDS011;40151;43.606;1.472;2023-03-23T07:59:40;5.78;;;4.28;;
54235;SDS011;40151;43.606;1.472;2023-03-23T08:02:07;6.38;;;4.28;;
54235;SDS011;40151;43.606;1.472;2023-03-23T08:04:34;7.05;;;3.95;;
54235;SDS011;40151;43.606;1.472;2023-03-23T08:07:02;5.38;;;4.00;;
54235;SDS011;40151;43.606;1.472;2023-03-23T08:09:29;5.57;;;4.18;;
54235;SDS011;40151;43.606;1.472;2023-03-23T08:11:55;5.85;;;4.13;;
54235;SDS011;40151;43.606;1.472;2023-03-23T08:14:21;6.07;;;4.30;;
54235;SDS011;40151;43.606;1.472;2023-03-23T08:16:46;6.10;;;4.53;;
54235;SDS011;40151;43.606;1.472;2023-03-23T08:19:13;6.10;;;4.57;;
54235;SDS011;40151;43.606;1.472;2023-03-23T08:21:38;7.22;;;5.05;;
54235;SDS011;40151;43.606;1.472;2023-03-23T08:24:04;7.53;;;5.32;;
54235;SDS011;40151;43.606;1.472;2023-03-23T08:26:30;8.20;;;4.65;;
54235;SDS011;40151;43.606;1.472;2023-03-23T08:28:55;6.78;;;4.85;;
54235;SDS011;40151;43.606;1.472;2023-03-23T08:31:22;6.93;;;5.07;;
54235;SDS011;40151;43.606;1.472;2023-03-23T08:33:48;6.57;;;4.80;;
54235;SDS011;40151;43.606;1.472;2023-03-23T08:36:13;7.50;;;4.95;;
54235;SDS011;40151;43.606;1.472;2023-03-23T08:38:39;6.47;;;4.68;;
54235;SDS011;40151;43.606;1.472;2023-03-23T08:41:05;7.45;;;4.85;;
54235;SDS011;40151;43.606;1.472;2023-03-23T08:43:32;7.07;;;4.63;;
54235;SDS011;40151;43.606;1.472;2023-03-23T08:45:59;7.43;;;5.05;;
54235;SDS011;40151;43.606;1.472;2023-03-23T08:48:24;7.05;;;5.18;;
54235;SDS011;40151;43.606;1.472;2023-03-23T08:50:50;6.28;;;4.70;;
54235;SDS011;40151;43.606;1.472;2023-03-23T08:53:17;6.97;;;5.03;;
54235;SDS011;40151;43.606;1.472;2023-03-23T08:55:43;7.93;;;4.57;;
54235;SDS011;40151;43.606;1.472;2023-03-23T08:58:09;6.78;;;4.90;;
54235;SDS011;40151;43.606;1.472;2023-03-23T09:00:34;6.53;;;5.15;;
54235;SDS011;40151;43.606;1.472;2023-03-23T09:03:00;6.32;;;5.05;;
54235;SDS011;40151;43.606;1.472;2023-03-23T09:05:27;6.68;;;5.10;;
54235;SDS011;40151;43.606;1.472;2023-03-23T09:07:54;6.90;;;4.75;;
54235;SDS011;40151;43.606;1.472;2023-03-23T09:10:23;6.93;;;4.43;;
54235;SDS011;40151;43.606;1.472;2023-03-23T09:12:51;6.47;;;4.53;;
54235;SDS011;40151;43.606;1.472;2023-03-23T09:15:17;6.40;;;4.85;;
54235;SDS011;40151;43.606;1.472;2023-03-23T09:17:47;7.22;;;5.03;;
54235;SDS011;40151;43.606;1.472;2023-03-23T09:20:15;6.70;;;5.05;;
54235;SDS011;40151;43.606;1.472;2023-03-23T09:22:44;6.53;;;4.95;;
54235;SDS011;40151;43.606;1.472;2023-03-23T09:25:12;6.93;;;5.20;;
54235;SDS011;40151;43.606;1.472;2023-03-23T09:27:39;7.43;;;4.85;;
54235;SDS011;40151;43.606;1.472;2023-03-23T09:30:06;7.00;;;5.40;;
54235;SDS011;40151;43.606;1.472;2023-03-23T09:32:35;6.95;;;4.93;;
54235;SDS011;40151;43.606;1.472;2023-03-23T09:35:02;6.05;;;4.50;;
54235;SDS011;40151;43.606;1.472;2023-03-23T09:37:29;7.07;;;4.85;;
54235;SDS011;40151;43.606;1.472;2023-03-23T09:39:55;6.63;;;4.70;;
54235;SDS011;40151;43.606;1.472;2023-03-23T09:45:33;5.78;;;4.43;;
54235;SDS011;40151;43.606;1.472;2023-03-23T09:51:08;7.38;;;4.97;;
54235;SDS011;40151;43.606;1.472;2023-03-23T09:53:44;5.47;;;4.63;;
54235;SDS011;40151;43.606;1.472;2023-03-23T09:56:15;6.68;;;4.90;;
54235;SDS011;40151;43.606;1.472;2023-03-23T09:58:58;6.22;;;4.63;;
54235;SDS011;40151;43.606;1.472;2023-03-23T10:01:31;6.75;;;4.72;;
54235;SDS011;40151;43.606;1.472;2023-03-23T10:07:13;9.02;;;5.20;;
54235;SDS011;40151;43.606;1.472;2023-03-23T10:09:41;9.20;;;5.35;;
54235;SDS011;40151;43.606;1.472;2023-03-23T10:17:26;7.07;;;4.55;;
54235;SDS011;40151;43.606;1.472;2023-03-23T10:22:33;7.95;;;4.70;;
54235;SDS011;40151;43.606;1.472;2023-03-23T10:25:15;7.55;;;4.85;;
54235;SDS011;40151;43.606;1.472;2023-03-23T10:28:05;7.80;;;4.72;;
54235;SDS011;40151;43.606;1.472;2023-03-23T10:30:39;6.95;;;4.60;;
54235;SDS011;40151;43.606;1.472;2023-03-23T10:35:57;7.82;;;4.95;;
54235;SDS011;40151;43.606;1.472;2023-03-23T10:38:33;6.88;;;4.68;;
54235;SDS011;40151;43.606;1.472;2023-03-23T10:41:15;11.75;;;5.00;;
54235;SDS011;40151;43.606;1.472;2023-03-23T10:43:43;8.38;;;5.20;;
54235;SDS011;40151;43.606;1.472;2023-03-23T10:48:50;7.82;;;5.07;;
54235;SDS011;40151;43.606;1.472;2023-03-23T10:51:18;8.88;;;4.75;;
54235;SDS011;40151;43.606;1.472;2023-03-23T10:53:51;11.38;;;5.38;;
54235;SDS011;40151;43.606;1.472;2023-03-23T10:56:38;10.38;;;4.80;;
54235;SDS011;40151;43.606;1.472;2023-03-23T10:59:17;9.02;;;5.13;;
54235;SDS011;40151;43.606;1.472;2023-03-23T11:01:47;9.85;;;5.53;;
54235;SDS011;40151;43.606;1.472;2023-03-23T11:04:16;8.50;;;5.45;;
54235;SDS011;40151;43.606;1.472;2023-03-23T11:06:46;9.88;;;5.20;;
54235;SDS011;40151;43.606;1.472;2023-03-23T11:09:18;7.03;;;5.13;;
54235;SDS011;40151;43.606;1.472;2023-03-23T11:11:52;9.75;;;6.05;;
54235;SDS011;40151;43.606;1.472;2023-03-23T11:17:03;10.48;;;5.20;;
54235;SDS011;40151;43.606;1.472;2023-03-23T11:24:36;9.20;;;5.60;;
54235;SDS011;40151;43.606;1.472;2023-03-23T11:27:13;10.23;;;6.05;;
54235;SDS011;40151;43.606;1.472;2023-03-23T11:32:30;8.20;;;5.20;;
54235;SDS011;40151;43.606;1.472;2023-03-23T11:35:00;7.82;;;5.22;;
54235;SDS011;40151;43.606;1.472;2023-03-23T11:40:03;7.78;;;5.10;;
54235;SDS011;40151;43.606;1.472;2023-03-23T11:45:14;6.55;;;4.95;;
54235;SDS011;40151;43.606;1.472;2023-03-23T11:48:13;6.55;;;5.20;;
54235;SDS011;40151;43.606;1.472;2023-03-23T11:50:51;7.70;;;5.22;;
54235;SDS011;40151;43.606;1.472;2023-03-23T11:53:22;7.80;;;4.82;;
54235;SDS011;40151;43.606;1.472;2023-03-23T11:56:13;7.53;;;4.63;;
54235;SDS011;40151;43.606;1.472;2023-03-23T11:58:40;7.30;;;4.97;;
54235;SDS011;40151;43.606;1.472;2023-03-23T12:01:11;7.70;;;4.95;;
54235;SDS011;40151;43.606;1.472;2023-03-23T12:06:32;7.45;;;5.00;;
54235;SDS011;40151;43.606;1.472;2023-03-23T12:12:04;9.43;;;5.28;;
54235;SDS011;40151;43.606;1.472;2023-03-23T12:14:41;7.38;;;5.47;;
54235;SDS011;40151;43.606;1.472;2023-03-23T12:21:22;8.20;;;5.32;;
54235;SDS011;40151;43.606;1.472;2023-03-23T12:29:03;7.85;;;5.53;;
54235;SDS011;40151;43.606;1.472;2023-03-23T12:35:00;23.85;;;12.60;;
54235;SDS011;40151;43.606;1.472;2023-03-23T12:48:28;117.90;;;57.00;;
54235;SDS011;40151;43.606;1.472;2023-03-23T12:51:07;112.32;;;53.10;;
54235;SDS011;40151;43.606;1.472;2023-03-23T12:54:23;75.63;;;37.42;;
54235;SDS011;40151;43.606;1.472;2023-03-23T12:59:43;42.70;;;23.60;;
54235;SDS011;40151;43.606;1.472;2023-03-23T13:02:25;44.67;;;21.50;;
54235;SDS011;40151;43.606;1.472;2023-03-23T13:05:42;20.30;;;11.40;;
54235;SDS011;40151;43.606;1.472;2023-03-23T13:07:53;23.38;;;13.70;;
54235;SDS011;40151;43.606;1.472;2023-03-23T13:10:31;15.13;;;8.20;;
54235;SDS011;40151;43.606;1.472;2023-03-23T13:13:05;10.70;;;6.43;;
54235;SDS011;40151;43.606;1.472;2023-03-23T13:15:41;8.57;;;7.05;;
54235;SDS011;40151;43.606;1.472;2023-03-23T13:18:16;9.40;;;6.78;;
54235;SDS011;40151;43.606;1.472;2023-03-23T13:20:54;9.07;;;5.88;;
54235;SDS011;40151;43.606;1.472;2023-03-23T13:28:22;7.80;;;5.65;;
54235;SDS011;40151;43.606;1.472;2023-03-23T13:33:25;9.15;;;5.70;;
54235;SDS011;40151;43.606;1.472;2023-03-23T13:35:53;7.75;;;5.20;;
54235;SDS011;40151;43.606;1.472;2023-03-23T13:38:28;6.75;;;5.22;;
54235;SDS011;40151;43.606;1.472;2023-03-23T13:40:54;7.43;;;5.57;;
54235;SDS011;40151;43.606;1.472;2023-03-23T13:43:31;7.25;;;5.72;;
54235;SDS011;40151;43.606;1.472;2023-03-23T13:48:49;7.72;;;5.22;;
54235;SDS011;40151;43.606;1.472;2023-03-23T13:59:28;8.18;;;5.28;;
54235;SDS011;40151;43.606;1.472;2023-03-23T14:05:35;6.28;;;5.03;;
54235;SDS011;40151;43.606;1.472;2023-03-23T14:08:03;6.55;;;5.38;;
54235;SDS011;40151;43.606;1.472;2023-03-23T14:10:42;8.63;;;5.55;;
54235;SDS011;40151;43.606;1.472;2023-03-23T14:16:21;6.90;;;5.25;;
54235;SDS011;40151;43.606;1.472;2023-03-23T14:18:50;10.13;;;5.88;;
54235;SDS011;40151;43.606;1.472;2023-03-23T14:21:25;7.82;;;6.22;;
54235;SDS011;40151;43.606;1.472;2023-03-23T14:23:51;7.18;;;5.22;;
54235;SDS011;40151;43.606;1.472;2023-03-23T14:26:17;7.00;;;5.78;;
54235;SDS011;40151;43.606;1.472;2023-03-23T14:28:49;7.35;;;5.15;;
54235;SDS011;40151;43.606;1.472;2023-03-23T14:33:47;7.60;;;5.53;;
54235;SDS011;40151;43.606;1.472;2023-03-23T14:36:14;7.32;;;5.50;;
54235;SDS011;40151;43.606;1.472;2023-03-23T14:38:44;6.45;;;4.85;;
54235;SDS011;40151;43.606;1.472;2023-03-23T14:41:10;6.38;;;5.25;;
54235;SDS011;40151;43.606;1.472;2023-03-23T14:43:37;7.07;;;5.25;;
54235;SDS011;40151;43.606;1.472;2023-03-23T14:46:05;6.95;;;4.90;;
54235;SDS011;40151;43.606;1.472;2023-03-23T14:48:32;7.43;;;5.50;;
54235;SDS011;40151;43.606;1.472;2023-03-23T14:51:00;6.95;;;5.25;;
54235;SDS011;40151;43.606;1.472;2023-03-23T14:53:35;7.43;;;5.65;;
54235;SDS011;40151;43.606;1.472;2023-03-23T14:56:17;7.05;;;5.13;;
54235;SDS011;40151;43.606;1.472;2023-03-23T14:58:47;6.95;;;5.05;;
54235;SDS011;40151;43.606;1.472;2023-03-23T15:01:20;7.05;;;4.75;;
54235;SDS011;40151;43.606;1.472;2023-03-23T15:03:59;6.05;;;5.10;;
54235;SDS011;40151;43.606;1.472;2023-03-23T15:08:56;6.35;;;4.65;;
54235;SDS011;40151;43.606;1.472;2023-03-23T15:11:30;7.40;;;4.80;;
54235;SDS011;40151;43.606;1.472;2023-03-23T15:14:14;6.22;;;4.50;;
54235;SDS011;40151;43.606;1.472;2023-03-23T15:16:45;6.60;;;4.40;;
54235;SDS011;40151;43.606;1.472;2023-03-23T15:19:16;7.15;;;4.60;;
54235;SDS011;40151;43.606;1.472;2023-03-23T15:21:49;6.30;;;4.55;;
54235;SDS011;40151;43.606;1.472;2023-03-23T15:24:24;6.32;;;4.78;;
54235;SDS011;40151;43.606;1.472;2023-03-23T15:26:51;6.03;;;4.88;;
54235;SDS011;40151;43.606;1.472;2023-03-23T15:29:17;8.20;;;5.07;;
54235;SDS011;40151;43.606;1.472;2023-03-23T15:31:53;6.22;;;5.13;;
54235;SDS011;40151;43.606;1.472;2023-03-23T15:34:33;7.85;;;4.80;;
54235;SDS011;40151;43.606;1.472;2023-03-23T15:37:05;5.88;;;4.60;;
54235;SDS011;40151;43.606;1.472;2023-03-23T15:39:44;5.47;;;4.40;;
54235;SDS011;40151;43.606;1.472;2023-03-23T15:42:19;6.72;;;4.50;;
54235;SDS011;40151;43.606;1.472;2023-03-23T15:44:54;7.35;;;4.90;;
54235;SDS011;40151;43.606;1.472;2023-03-23T15:48:04;6.45;;;4.68;;
54235;SDS011;40151;43.606;1.472;2023-03-23T15:52:51;7.20;;;4.22;;
54235;SDS011;40151;43.606;1.472;2023-03-23T15:55:24;6.50;;;4.32;;
54235;SDS011;40151;43.606;1.472;2023-03-23T15:57:50;7.78;;;4.47;;
54235;SDS011;40151;43.606;1.472;2023-03-23T16:00:17;6.32;;;4.72;;
54235;SDS011;40151;43.606;1.472;2023-03-23T16:02:46;6.57;;;4.88;;
54235;SDS011;40151;43.606;1.472;2023-03-23T16:05:14;7.38;;;4.55;;
54235;SDS011;40151;43.606;1.472;2023-03-23T16:07:39;9.02;;;4.88;;
54235;SDS011;40151;43.606;1.472;2023-03-23T16:10:06;7.57;;;5.00;;
54235;SDS011;40151;43.606;1.472;2023-03-23T16:12:32;6.97;;;4.57;;
54235;SDS011;40151;43.606;1.472;2023-03-23T16:14:57;7.25;;;4.70;;
54235;SDS011;40151;43.606;1.472;2023-03-23T16:17:23;8.05;;;4.75;;
54235;SDS011;40151;43.606;1.472;2023-03-23T16:19:48;6.90;;;4.30;;
54235;SDS011;40151;43.606;1.472;2023-03-23T16:22:14;6.70;;;4.75;;
54235;SDS011;40151;43.606;1.472;2023-03-23T16:24:39;8.18;;;4.80;;
54235;SDS011;40151;43.606;1.472;2023-03-23T16:27:05;7.63;;;4.97;;
54235;SDS011;40151;43.606;1.472;2023-03-23T16:29:30;6.32;;;4.85;;
54235;SDS011;40151;43.606;1.472;2023-03-23T16:31:55;7.63;;;4.70;;
54235;SDS011;40151;43.606;1.472;2023-03-23T16:34:21;6.68;;;4.47;;
54235;SDS011;40151;43.606;1.472;2023-03-23T16:36:47;6.88;;;5.40;;
54235;SDS011;40151;43.606;1.472;2023-03-23T16:39:12;7.00;;;5.05;;
54235;SDS011;40151;43.606;1.472;2023-03-23T16:41:39;6.32;;;4.43;;
54235;SDS011;40151;43.606;1.472;2023-03-23T16:44:05;7.35;;;4.60;;
54235;SDS011;40151;43.606;1.472;2023-03-23T16:46:30;7.75;;;4.75;;
54235;SDS011;40151;43.606;1.472;2023-03-23T16:48:56;7.90;;;5.07;;
54235;SDS011;40151;43.606;1.472;2023-03-23T16:51:21;8.20;;;4.97;;
54235;SDS011;40151;43.606;1.472;2023-03-23T16:53:47;6.95;;;4.28;;
54235;SDS011;40151;43.606;1.472;2023-03-23T16:56:13;8.10;;;5.05;;
54235;SDS011;40151;43.606;1.472;2023-03-23T16:58:39;6.45;;;4.05;;
54235;SDS011;40151;43.606;1.472;2023-03-23T17:01:05;6.25;;;4.20;;
54235;SDS011;40151;43.606;1.472;2023-03-23T17:03:31;6.18;;;4.82;;
54235;SDS011;40151;43.606;1.472;2023-03-23T17:05:56;7.70;;;4.63;;